Eloten, Turkmenistan

8:41 PM TMT on July 29, 2016 (GMT +0500)
Mary Airport | | Change Station

Elev 728 ft 37.62 °N, 61.90 °E | Updated 41 minutes ago

Clear
Clear
90 °F
Feels Like 88 °F
N
12
Wind Variable Wind from NNE

Today
High -- | Low -- °F
--% Chance of Precip.
Yesterday
High -- | Low -- °F
Precip. -- in
Pressure 29.71 in
Visibility -9999.0 miles
Clouds
Heat Index 88 °F
Dew Point 57 °F
Humidity 33%
Rainfall 0.00 in
Snow Depth Not available.
5:52 AM 8:00 PM
Waning Crescent, 21% visible
METAR UTAM 291500Z 02010KT CAVOK 32/14 Q1006 NOSIG
Pressure 29.71 in
Visibility -9999.0 miles
Clouds
Heat Index 88 °F
Dew Point 57 °F
Humidity 33%
Rainfall 0.00 in
Snow Depth Not available.
5:52 AM 8:00 PM
Waning Crescent, 21% visible
METAR UTAM 291500Z 02010KT CAVOK 32/14 Q1006 NOSIG

10-Day Weather Forecast

×

Almanac

Astronomy

Jul. 29, 2016 Rise Set
Actual Time
Civil Twilight
Nautical Twilight
Astronomical Twilight
Moon
Length of Visible Light
Length of Day
Tomorrow will be .
, % of the Moon is Illuminated

Today's Extremes

Country Highs Country Lows

Community

WunderPhotos

Upload Photos

1,928,348 photos uploaded!

WunderBlog® & News

Nearby

Air Quality

  Air Quality AQ Index Pollutant
Not available.

Snow Depth

Station Depth Elevation

Earthquake Activity

City Distance Mag. Time & Date
Minimum magnitude displayed is 2.5.

Coastal Water Temperatures

Place Temperature

Stations

Nearby Weather Stations

Station Location Temp. Windchill Dew Point Humidity Wind Precip. Elev Updated Type